SBBG

Comandante Gustavo Kraemer Airport

Bagé, Brazil
TAF SBBG 201530Z 2018/2118 04008KT 9999 SCT030 FEW040TCU TX30/2018Z T N19/2108Z PROB40 TEMPO 2018/2024 5000 TSRA BKN015 FEW040CB BECMG 2100/2102 070 05KT SCT015 PROB30 TEMPO 2112/2118 34008KT 8000 TSRA BKN020 FEW030CB RMK PEB
Issued Valid From Valid To
Apr-20 @ 15:30 UTC
(3 hours ago)
Apr-20 @ 18:00 UTC
(34 minutes ago)
Apr-21 @ 18:00 UTC
(in 23 hours)
Apr-20 @ 18:00 to Apr-21 @ 00:00
TAF SBBG 201530Z 2018/2118 04008KT 9999 SCT030 FEW040TCU TX30/2018Z T N19/2108Z
Wind Visibility Clouds
40° at 8 knots 10,000+ meters
  • Scattered at 3,000' AGL
  • Few at 4,000' AGL
Temporary  (Probability 40%) Apr-20 @ 18:00 to Apr-21 @ 00:00
PROB40 TEMPO 2018/2024 5000 TSRA BKN015 FEW040CB
Visibility Clouds Conditions
5,005 meters
  • Broken at 1,500' AGL
  • Few at 4,000' AGL
  • Thunderstorm
  • Rain
Becoming Apr-21 @ 00:00 to Apr-21 @ 18:00
BECMG 2100/2102 070 05KT SCT015
Wind Visibility Clouds
40° at 8 knots 10,000+ meters
  • Scattered at 1,500' AGL
Temporary  (Probability 30%) Apr-21 @ 12:00 to Apr-21 @ 18:00
PROB30 TEMPO 2112/2118 34008KT 8000 TSRA BKN020 FEW030CB RMK PEB
Wind Visibility Clouds Conditions
340° at 8 knots 7,998 meters
  • Broken at 2,000' AGL
  • Few at 3,000' AGL
  • Thunderstorm
  • Rain
TAF SBBG 201530Z 2018/2118 04008KT 9999 SCT030 FEW040TCU TX30/2018Z T N19/2108Z PROB40 TEMPO 2018/2024 5000 TSRA BKN015 FEW040CB BECMG 2100/2102 070 05KT SCT015 PROB30 TEMPO 2112/2118 34008KT 8000 TSRA BKN020 FEW030CB RMK PEB
Issued Apr-20 @ 15:30 UTC
(3 hours ago)
Valid From Apr-20 @ 18:00 UTC
(34 minutes ago)
Valid To Apr-21 @ 18:00 UTC
(in 23 hours)
Apr-20 @ 18:00 - Apr-21 @ 00:00
Wind Visibility
40° at 8 knots 10,000+ meters
Clouds
  • Scattered at 3,000' AGL
  • Few at 4,000' AGL
Probability 40% Temporary Apr-20 @ 18:00 - Apr-21 @ 00:00
Clouds
  • Broken at 1,500' AGL
  • Few at 4,000' AGL
Conditions
  • Thunderstorm
  • Rain
Becoming Apr-21 @ 00:00 - Apr-21 @ 18:00
Wind Visibility
40° at 8 knots 10,000+ meters
Clouds
  • Scattered at 1,500' AGL
Probability 30% Temporary Apr-21 @ 12:00 - Apr-21 @ 18:00
Wind Visibility
340° at 8 knots 7,998 meters
Clouds
  • Broken at 2,000' AGL
  • Few at 3,000' AGL
Conditions
  • Thunderstorm
  • Rain